createdAt,value
2016-09-24T20:28:46.651Z,57.00
2016-09-24T20:29:16.993Z,57.00
2016-09-24T20:30:15.913Z,57.00
2016-09-24T20:31:13.951Z,56.80
2016-09-24T20:32:14.066Z,56.70
2016-09-24T20:33:14.225Z,56.60
2016-09-24T20:34:13.999Z,56.60
2016-09-24T20:35:14.017Z,56.50
2016-09-24T20:36:14.109Z,56.60
2016-09-24T20:37:14.391Z,56.60
2016-09-24T20:38:13.359Z,56.60
2016-09-24T20:39:13.642Z,56.80
2016-09-24T20:40:14.149Z,56.50
2016-09-24T20:41:14.518Z,56.50
2016-09-24T20:42:13.588Z,56.40
2016-09-24T20:43:14.164Z,56.50
2016-09-24T20:44:14.534Z,56.60
2016-09-24T20:45:13.456Z,56.50
2016-09-24T20:46:14.738Z,56.70
2016-09-24T20:47:13.713Z,56.60
2016-09-24T20:48:13.697Z,56.70
2016-09-24T20:49:19.172Z,56.70
2016-09-24T20:50:09.662Z,is
2016-09-24T20:51:14.326Z,56.90
2016-09-24T20:52:14.381Z,56.90
2016-09-24T20:53:13.335Z,56.90
2016-09-24T20:54:13.784Z,57.00
2016-09-24T20:55:14.397Z,56.90
2016-09-24T20:56:14.196Z,57.00
2016-09-24T20:57:13.608Z,57.00
2016-09-24T20:58:15.132Z,57.00
2016-09-24T20:59:11.457Z,is
2016-09-24T21:00:14.385Z,57.00
2016-09-24T21:01:14.603Z,57.00
2016-09-24T21:02:09.284Z,is
2016-09-24T21:03:14.708Z,57.10
2016-09-24T21:04:14.180Z,56.90
2016-09-24T21:05:14.699Z,57.00
2016-09-24T21:06:15.715Z,57.00
2016-09-24T21:07:12.558Z,57.00
2016-09-24T21:08:14.713Z,57.10
2016-09-24T21:09:14.394Z,57.00
2016-09-24T21:10:14.390Z,57.00
2016-09-24T21:11:14.063Z,57.10
2016-09-24T21:12:14.583Z,57.00
2016-09-24T21:13:14.204Z,57.10
2016-09-24T21:14:14.010Z,57.10
2016-09-24T21:15:12.877Z,57.10
2016-09-24T21:16:14.236Z,57.20
2016-09-24T21:17:14.867Z,57.10
2016-09-24T21:18:14.666Z,57.30
2016-09-24T21:19:14.191Z,57.20
2016-09-24T21:20:12.642Z,57.20
2016-09-24T21:21:13.464Z,57.30
2016-09-24T21:22:14.642Z,57.30
2016-09-24T21:23:14.054Z,57.30
2016-09-24T21:24:15.135Z,57.40
2016-09-24T21:25:13.264Z,57.40
2016-09-24T21:26:13.538Z,57.30
2016-09-24T21:27:12.448Z,57.40
2016-09-24T21:28:14.087Z,57.40
2016-09-24T21:29:13.596Z,57.50
2016-09-24T21:30:14.829Z,57.50
2016-09-24T21:31:15.307Z,57.70
2016-09-24T21:32:14.871Z,56.90
2016-09-24T21:33:13.199Z,57.60
2016-09-24T21:34:13.313Z,57.50
2016-09-24T21:35:13.903Z,57.70
2016-09-24T21:36:13.180Z,57.60
2016-09-24T21:37:13.332Z,57.70
2016-09-24T21:38:13.180Z,57.60
2016-09-24T21:39:13.888Z,57.60
2016-09-24T21:40:14.774Z,57.70
2016-09-24T21:41:12.539Z,57.80
2016-09-24T21:42:14.605Z,58.10
2016-09-24T21:43:14.201Z,58.10
2016-09-24T21:44:14.345Z,57.10
2016-09-24T21:45:12.873Z,58.40
2016-09-24T21:46:14.212Z,58.00
2016-09-24T21:47:13.420Z,57.90
2016-09-24T21:48:13.526Z,58.00
2016-09-24T21:49:13.274Z,58.00
2016-09-24T21:50:12.938Z,58.00
2016-09-24T21:51:11.081Z,is
2016-09-24T21:52:14.128Z,58.00
2016-09-24T21:53:14.391Z,58.00
2016-09-24T21:54:12.249Z,58.00
2016-09-24T21:55:13.861Z,58.00
2016-09-24T21:56:13.181Z,57.90
2016-09-24T21:57:13.221Z,58.00
2016-09-24T21:58:11.574Z,is
2016-09-24T21:59:12.981Z,58.00
2016-09-24T22:00:13.515Z,58.00
2016-09-24T22:01:09.992Z,is
2016-09-24T22:02:14.506Z,58.00
2016-09-24T22:03:12.997Z,58.00
2016-09-24T22:04:12.212Z,58.00
2016-09-24T22:05:09.054Z,is
2016-09-24T22:06:12.892Z,58.00
2016-09-24T22:07:14.725Z,58.00
2016-09-24T22:08:13.657Z,58.00
2016-09-24T22:09:12.857Z,57.90
2016-09-24T22:10:13.532Z,58.00
2016-09-24T22:11:13.586Z,58.00
2016-09-24T22:12:14.371Z,58.00
2016-09-24T22:13:13.813Z,58.00
2016-09-24T22:14:12.522Z,58.00
2016-09-24T22:15:13.305Z,58.00
2016-09-24T22:16:12.833Z,58.00
2016-09-24T22:17:13.423Z,58.00
2016-09-24T22:18:14.963Z,58.00
2016-09-24T22:19:13.399Z,57.90
2016-09-24T22:20:14.423Z,58.00
2016-09-24T22:21:13.430Z,58.00
2016-09-24T22:22:13.307Z,58.00
2016-09-24T22:23:12.357Z,58.00
2016-09-24T22:24:14.355Z,58.00
2016-09-24T22:25:13.972Z,58.00
2016-09-24T22:26:13.530Z,58.00
2016-09-24T22:27:13.741Z,58.00
2016-09-24T22:28:14.059Z,58.00
2016-09-24T22:29:12.993Z,58.00
2016-09-24T22:30:12.293Z,58.00
2016-09-24T22:31:13.123Z,57.90
2016-09-24T22:32:14.719Z,58.00
2016-09-24T22:33:12.843Z,58.00
2016-09-24T22:34:13.071Z,57.90
2016-09-24T22:35:14.049Z,57.60
2016-09-24T22:36:13.912Z,58.00
2016-09-24T22:37:14.004Z,58.00
2016-09-24T22:38:13.172Z,58.00
2016-09-24T22:39:13.069Z,58.10
2016-09-24T22:40:14.300Z,58.00
2016-09-24T22:41:10.457Z,is
2016-09-24T22:42:13.299Z,58.00
2016-09-24T22:43:12.504Z,57.90
2016-09-24T22:44:14.094Z,58.00
2016-09-24T22:45:13.048Z,58.00
2016-09-24T22:46:13.398Z,58.00
2016-09-24T22:47:13.886Z,58.00
2016-09-24T22:48:13.160Z,58.00
2016-09-24T22:49:12.361Z,58.00
2016-09-24T22:50:14.429Z,58.00
2016-09-24T22:51:12.134Z,58.00
2016-09-24T22:52:14.359Z,58.00
2016-09-24T22:53:12.923Z,58.00
2016-09-24T22:54:12.284Z,58.00
2016-09-24T22:55:13.778Z,58.00
2016-09-24T22:56:13.402Z,58.00
2016-09-24T22:57:14.253Z,58.00
2016-09-24T22:58:14.219Z,58.00
2016-09-24T22:59:13.192Z,58.00
2016-09-24T23:00:13.559Z,58.00
2016-09-24T23:01:12.923Z,58.00
2016-09-24T23:02:12.285Z,58.00
2016-09-24T23:03:12.955Z,58.00
2016-09-24T23:04:13.991Z,57.90
2016-09-24T23:05:14.251Z,58.00
2016-09-24T23:06:14.221Z,57.90
2016-09-24T23:07:12.984Z,57.90
2016-09-24T23:08:13.924Z,58.00
2016-09-24T23:09:13.824Z,57.90
2016-09-24T23:10:11.558Z,58.10
2016-09-24T23:11:08.887Z,is
2016-09-24T23:12:13.913Z,58.00
2016-09-24T23:13:13.366Z,58.10
2016-09-24T23:14:12.985Z,58.10
2016-09-24T23:15:10.802Z,is
2016-09-24T23:16:13.534Z,58.10
2016-09-24T23:17:14.135Z,58.20
2016-09-24T23:18:13.840Z,58.30
2016-09-24T23:19:13.091Z,58.30
2016-09-24T23:20:13.887Z,58.20
2016-09-24T23:21:13.005Z,58.30
2016-09-24T23:22:13.729Z,58.40
2016-09-24T23:23:13.020Z,58.30
2016-09-24T23:24:13.414Z,58.20
2016-09-24T23:25:13.339Z,58.50
2016-09-24T23:26:14.543Z,58.50
2016-09-24T23:27:11.914Z,58.40
2016-09-24T23:28:13.573Z,58.50
2016-09-24T23:29:13.453Z,58.50
2016-09-24T23:30:11.966Z,58.50
2016-09-24T23:31:13.143Z,58.50
2016-09-24T23:32:12.638Z,58.50
2016-09-24T23:33:12.613Z,58.50
2016-09-24T23:34:14.321Z,58.60
2016-09-24T23:35:13.061Z,58.60
2016-09-24T23:36:13.685Z,58.50
2016-09-24T23:37:15.063Z,58.50
2016-09-24T23:38:13.671Z,58.60
2016-09-24T23:39:13.438Z,58.50
2016-09-24T23:40:12.768Z,58.60
2016-09-24T23:41:13.863Z,58.50
2016-09-24T23:42:13.879Z,58.60
2016-09-24T23:43:12.456Z,58.60
2016-09-24T23:44:10.360Z,is
2016-09-24T23:45:12.404Z,58.60
2016-09-24T23:46:13.141Z,58.80
2016-09-24T23:47:12.715Z,58.60
2016-09-24T23:48:12.986Z,58.70
2016-09-24T23:49:12.665Z,58.70
2016-09-24T23:50:13.302Z,58.80
2016-09-24T23:51:11.985Z,58.60
2016-09-24T23:52:14.059Z,58.80
2016-09-24T23:53:14.810Z,58.80
2016-09-24T23:54:12.869Z,58.80
2016-09-24T23:55:13.481Z,58.80
2016-09-24T23:56:12.273Z,58.70
2016-09-24T23:57:12.808Z,58.80
2016-09-24T23:58:12.942Z,58.90
2016-09-24T23:59:16.820Z,58.00
